Lake Ann, Michigan
Current Conditions -  °F | °C
As of 1:53 PM on Friday 28 Nov 2014 (Local Time) from KTVC Reporting Station
Light Snow Light Snow  
Wind Chill: 19°   Ceiling: 2500
Heat Index: 25°   Visibility: 2.5mi
Dew Point: 17°   Wind: 5mph
Humidity: 72%   Direction: NA
Pressure: 30.11"   Gusts: NA
Location:  44.72°N, 85.84°W
Report Text: KTVC 281853Z VRB04KT 2 1/2SM -SN BKN025 OVC035 M04/M08 A3011 RMK AO2 SNB02 SLP207 P0000 T10391083
Loading
Personal Weather Stations






























Interactive Weather Map New forecast layout! Learn more

10-Day Weather Forecast

Advertisements
Track Severe Weather on mobile